Řízení letového provozu České republiky
Letiste: LKNA Aktualizace: 19.02.2018 11:06:03  UTC
 METAR LKNA 19.02. 11:00 ...
METAR LKNA 191100Z 13008KT CAVOK M03/M06 Q1020 NOSIG=
 TAF LKNA 19.02. 05:00 AMD
TAF AMD LKNA 190500Z 1906/2006 02006KT CAVOK      BECMG 1906/1908 BKN030      BECMG 1910/1912 13006KT      TEMPO 1915/2000 6000 BKN020      PROB30 1916/1918 3000 BR NSC      TEMPO 2003/2006 0800 FZFG VV001=